createdAt,value
2023-04-03T03:59:45.515Z,7.00
2023-04-03T04:02:48.199Z,5.90
2023-04-03T04:05:51.479Z,6.15
2023-04-03T04:08:54.767Z,4.90
2023-04-03T04:11:57.146Z,5.40
2023-04-03T04:14:59.317Z,6.53
2023-04-03T04:18:04.482Z,5.25
2023-04-03T04:21:07.313Z,6.05
2023-04-03T04:24:09.926Z,5.70
2023-04-03T04:27:13.843Z,6.05
2023-04-03T04:30:16.541Z,5.80
2023-04-03T04:33:18.923Z,8.27
2023-04-03T04:36:21.541Z,6.22
2023-04-03T04:39:24.650Z,6.32
2023-04-03T04:42:27.536Z,5.40
2023-04-03T04:45:29.751Z,6.62
2023-04-03T04:48:32.868Z,5.80
2023-04-03T04:51:48.307Z,5.78
2023-04-03T04:54:54.149Z,6.43
2023-04-03T04:57:57.374Z,6.80
2023-04-03T05:01:05.473Z,6.50
2023-04-03T05:04:08.019Z,5.90
2023-04-03T05:07:10.655Z,5.53
2023-04-03T05:10:13.339Z,6.43
2023-04-03T05:13:17.744Z,7.37
2023-04-03T05:16:21.745Z,8.52
2023-04-03T05:19:24.354Z,5.80
2023-04-03T05:22:26.854Z,5.60
2023-04-03T05:25:30.782Z,9.15
2023-04-03T05:28:34.080Z,6.57
2023-04-03T05:31:36.623Z,5.85
2023-04-03T05:34:39.242Z,6.65
2023-04-03T05:37:41.884Z,7.05
2023-04-03T05:40:44.472Z,5.20
2023-04-03T05:43:47.120Z,6.82
2023-04-03T05:46:49.541Z,6.22
2023-04-03T05:49:52.090Z,5.82
2023-04-03T05:52:57.629Z,6.85
2023-04-03T05:56:01.827Z,6.03
2023-04-03T05:59:08.333Z,5.78
2023-04-03T06:02:17.591Z,5.97
2023-04-03T06:05:21.405Z,6.22
2023-04-03T06:08:24.748Z,5.20
2023-04-03T06:11:28.378Z,5.12
2023-04-03T06:14:31.168Z,5.50
2023-04-03T06:17:33.581Z,5.85
2023-04-03T06:20:36.036Z,4.75
2023-04-03T06:23:39.573Z,6.65
2023-04-03T06:26:42.416Z,5.62
2023-04-03T06:29:46.305Z,5.70
2023-04-03T06:32:49.071Z,5.45
2023-04-03T06:35:57.697Z,5.50
2023-04-03T06:39:00.563Z,5.57
2023-04-03T06:42:03.440Z,8.13
2023-04-03T06:45:07.019Z,5.68
2023-04-03T06:48:09.947Z,5.35
2023-04-03T06:51:19.168Z,5.78
2023-04-03T06:54:23.967Z,6.10
2023-04-03T06:57:27.384Z,4.75
2023-04-03T07:00:31.138Z,4.95
2023-04-03T07:03:34.520Z,6.25
2023-04-03T07:06:38.113Z,4.93
2023-04-03T07:09:40.313Z,5.90
2023-04-03T07:12:43.090Z,7.12
2023-04-03T07:15:45.312Z,4.90
2023-04-03T07:18:47.796Z,5.25
2023-04-03T07:21:49.933Z,5.47
2023-04-03T07:24:52.358Z,4.15
2023-04-03T07:27:55.502Z,4.35
2023-04-03T07:31:09.341Z,5.30
2023-04-03T07:34:12.319Z,4.90
2023-04-03T07:37:15.640Z,3.15
2023-04-03T07:40:19.045Z,4.12
2023-04-03T07:43:22.966Z,3.90
2023-04-03T07:46:25.234Z,3.95
2023-04-03T07:49:28.348Z,7.10
2023-04-03T07:52:30.504Z,4.80
2023-04-03T07:55:34.971Z,4.18
2023-04-03T07:58:37.977Z,4.43
2023-04-03T08:01:40.589Z,4.68
2023-04-03T08:04:43.066Z,3.58
2023-04-03T08:07:45.577Z,4.75
2023-04-03T08:11:00.363Z,4.57
2023-04-03T08:14:03.486Z,4.47
2023-04-03T08:17:06.353Z,4.95
2023-04-03T08:20:10.665Z,3.97
2023-04-03T08:23:13.173Z,4.12
2023-04-03T08:26:17.735Z,3.33
2023-04-03T08:29:20.404Z,4.57
2023-04-03T08:32:23.204Z,4.55
2023-04-03T08:35:25.884Z,3.40
2023-04-03T08:38:28.052Z,4.35
2023-04-03T08:41:37.690Z,3.22
2023-04-03T08:44:53.737Z,3.58
2023-04-03T08:51:24.506Z,3.92
2023-04-03T08:54:49.633Z,4.03
2023-04-03T08:58:00.887Z,4.68
2023-04-03T09:01:06.161Z,3.87
2023-04-03T09:04:14.950Z,4.28
2023-04-03T09:07:24.624Z,4.10
2023-04-03T09:10:32.301Z,4.43
2023-04-03T09:13:58.746Z,3.28
2023-04-03T09:20:31.591Z,4.18
2023-04-03T09:23:37.507Z,4.55
2023-04-03T09:26:52.421Z,3.53
2023-04-03T09:29:57.080Z,2.10
2023-04-03T09:32:59.457Z,4.37
2023-04-03T09:36:02.322Z,3.53
2023-04-03T09:39:11.399Z,3.28
2023-04-03T09:42:23.480Z,2.80
2023-04-03T09:45:35.264Z,2.85
2023-04-03T09:48:37.390Z,7.35
2023-04-03T09:51:39.903Z,10.43
2023-04-03T09:54:42.275Z,3.20
2023-04-03T09:57:46.953Z,2.85
2023-04-03T10:00:56.956Z,2.47
2023-04-03T10:04:19.937Z,3.28
2023-04-03T10:07:28.132Z,4.22
2023-04-03T10:10:30.623Z,3.03
2023-04-03T10:13:36.248Z,3.58
2023-04-03T10:16:56.074Z,2.90
2023-04-03T10:20:16.672Z,3.58
2023-04-03T10:23:27.963Z,2.45
2023-04-03T10:26:54.004Z,3.05
2023-04-03T10:30:19.646Z,2.83
2023-04-03T10:33:54.390Z,1.77
2023-04-03T10:37:22.614Z,4.57
2023-04-03T10:40:34.333Z,2.05
2023-04-03T10:43:56.329Z,4.68
2023-04-03T10:47:11.871Z,3.22
2023-04-03T10:50:20.540Z,2.37
2023-04-03T10:53:37.485Z,2.50
2023-04-03T10:57:04.496Z,2.75
2023-04-03T11:00:27.604Z,4.82
2023-04-03T11:03:45.183Z,2.90
2023-04-03T11:07:05.643Z,1.60
2023-04-03T11:10:18.385Z,2.22
2023-04-03T11:13:29.543Z,2.15
2023-04-03T11:16:47.267Z,2.22
2023-04-03T11:20:02.544Z,2.33
2023-04-03T11:23:15.194Z,2.50
2023-04-03T11:26:26.395Z,4.30
2023-04-03T11:29:35.917Z,2.78
2023-04-03T11:32:56.787Z,3.08
2023-04-03T11:36:15.478Z,2.47
2023-04-03T11:39:32.939Z,2.60
2023-04-03T11:42:39.289Z,4.93
2023-04-03T11:45:55.889Z,3.80
2023-04-03T11:48:58.481Z,2.10
2023-04-03T11:52:00.677Z,2.28
2023-04-03T11:55:03.274Z,1.45
2023-04-03T11:58:15.198Z,1.80
2023-04-03T12:01:44.908Z,1.73
2023-04-03T12:05:30.460Z,2.25
2023-04-03T12:08:41.992Z,2.30
2023-04-03T12:11:44.595Z,10.07
2023-04-03T12:14:47.716Z,3.10
2023-04-03T12:17:54.968Z,2.35
2023-04-03T12:20:58.326Z,2.30
2023-04-03T12:24:09.800Z,3.70
2023-04-03T12:27:27.096Z,1.75
2023-04-03T12:30:31.380Z,1.65
2023-04-03T12:33:57.681Z,1.95
2023-04-03T12:37:38.678Z,1.50
2023-04-03T12:40:48.392Z,1.98
2023-04-03T12:44:21.498Z,1.73
2023-04-03T12:47:28.630Z,1.52
2023-04-03T12:50:33.912Z,1.83
2023-04-03T12:53:39.525Z,1.55
2023-04-03T12:56:42.134Z,2.75
2023-04-03T12:59:47.439Z,1.52
2023-04-03T13:02:50.229Z,1.90
2023-04-03T13:06:02.864Z,2.05
2023-04-03T13:09:06.160Z,1.55
2023-04-03T13:12:14.011Z,1.90
2023-04-03T13:15:29.232Z,1.85
2023-04-03T13:18:36.277Z,2.00
2023-04-03T13:21:38.842Z,2.05
2023-04-03T13:24:41.232Z,2.28
2023-04-03T13:27:45.157Z,1.48
2023-04-03T13:31:23.384Z,1.62
2023-04-03T13:34:28.992Z,2.05
2023-04-03T13:37:34.005Z,1.73
2023-04-03T13:41:10.775Z,2.50
2023-04-03T13:44:22.114Z,3.70
2023-04-03T13:47:26.170Z,1.40
2023-04-03T13:50:30.003Z,1.60
2023-04-03T13:53:35.391Z,1.55
2023-04-03T13:56:42.871Z,2.33
2023-04-03T13:59:45.831Z,2.25
2023-04-03T14:02:49.361Z,3.33
2023-04-03T14:05:52.062Z,2.22
2023-04-03T14:08:54.579Z,3.47
2023-04-03T14:12:05.776Z,2.30
2023-04-03T14:15:27.150Z,2.15
2023-04-03T14:18:29.550Z,1.55
2023-04-03T14:21:31.708Z,3.22
2023-04-03T14:24:34.082Z,2.33
2023-04-03T14:27:41.862Z,2.53
2023-04-03T14:30:45.913Z,1.98
2023-04-03T14:33:48.543Z,1.52
2023-04-03T14:36:53.492Z,2.22
2023-04-03T14:40:01.433Z,2.85
2023-04-03T14:43:03.870Z,3.55
2023-04-03T14:46:12.079Z,1.73
2023-04-03T14:49:22.266Z,3.25
2023-04-03T14:52:28.534Z,1.60
2023-04-03T14:55:31.332Z,2.12
2023-04-03T14:58:33.419Z,2.45
2023-04-03T15:01:36.039Z,2.08
2023-04-03T15:04:38.276Z,2.42
2023-04-03T15:07:49.617Z,2.05
2023-04-03T15:10:56.648Z,3.17
2023-04-03T15:13:59.069Z,2.95
2023-04-03T15:30:09.094Z,4.90
2023-04-03T15:33:11.524Z,4.12
2023-04-03T15:36:29.200Z,4.40
2023-04-03T15:39:35.776Z,3.03
2023-04-03T15:42:38.500Z,3.90
2023-04-03T15:45:41.827Z,3.15
2023-04-03T15:48:45.639Z,2.97
2023-04-03T15:51:48.161Z,4.72
